Погода Пальмирна 2 недели

Хомс, Сирия

15 - 28 июня
  • 15июня
    Сегодня
    +26°
    +43°
    Ясно и безоблачно
    ВремяПогодаТемператураВлажностьДавлениеВетер, м/сВероятность осадков
    00:00Ясно и безоблачно+33°C23 %720 мм5.7 м/с2 %
    03:00Ясно и безоблачно+30°C26 %720 мм4.9 м/с2 %
    06:00Ясно и безоблачно+28°C27 %719 мм4.4 м/с2 %
    09:00Ясно и безоблачно+36°C17 %720 мм5.0 м/с2 %
    12:00Ясно и безоблачно+40°C11 %720 мм4.1 м/с2 %
    15:00Ясно и безоблачно+43°C9 %718 мм4.8 м/с2 %
    18:00Ясно и безоблачно+42°C8 %718 мм7.1 м/с2 %
    21:00Ясно и безоблачно+35°C18 %719 мм6.8 м/с2 %
  • 16июня
    Воскресенье
    +22°
    +40°
    Ясно и безоблачно
    ВремяПогодаТемператураВлажностьДавлениеВетер, м/сВероятность осадков
    00:00Ясно и безоблачно+31°C20 %719 мм5.1 м/с2 %
    03:00Ясно и безоблачно+28°C24 %719 мм3.0 м/с2 %
    06:00Ясно и безоблачно+27°C30 %720 мм4.7 м/с2 %
    09:00Ясно и безоблачно+32°C19 %721 мм5.3 м/с2 %
    12:00Ясно и безоблачно+37°C8 %721 мм4.4 м/с2 %
    15:00Ясно и безоблачно+39°C7 %720 мм4.8 м/с2 %
    18:00Ясно и безоблачно+38°C9 %720 мм5.5 м/с2 %
    21:00Ясно и безоблачно+33°C13 %720 мм4.9 м/с2 %
  • 17июня
    Понедельник
    +22°
    +40°
    Ясно и безоблачно
    ВремяПогодаТемператураВлажностьДавлениеВетер, м/сВероятность осадков
    00:00Ясно и безоблачно+27°C16 %721 мм5.5 м/с2 %
    03:00Ясно и безоблачно+24°C21 %720 мм4.8 м/с2 %
    06:00Ясно и безоблачно+22°C24 %721 мм3.1 м/с2 %
    09:00Ясно и безоблачно+29°C20 %722 мм3.3 м/с2 %
    12:00Ясно и безоблачно+36°C8 %723 мм2.4 м/с2 %
    15:00Ясно и безоблачно+39°C8 %722 мм2.2 м/с2 %
    18:00Ясно и безоблачно+40°C7 %721 мм3.4 м/с2 %
    21:00Ясно и безоблачно+33°C10 %721 мм2.8 м/с2 %
  • 18июня
    Вторник
    +24°
    +41°
    Ясно и безоблачно
    ВремяПогодаТемператураВлажностьДавлениеВетер, м/сВероятность осадков
    00:00Ясно и безоблачно+28°C25 %721 мм4.1 м/с2 %
    03:00Ясно и безоблачно+25°C31 %721 мм3.2 м/с2 %
    06:00Ясно и безоблачно+23°C37 %721 мм2.6 м/с2 %
    09:00Ясно и безоблачно+30°C20 %723 мм2.8 м/с2 %
    12:00Ясно и безоблачно+36°C11 %723 мм0.8 м/с2 %
    15:00Ясно и безоблачно+40°C8 %722 мм1.5 м/с2 %
    18:00Ясно и безоблачно+40°C8 %721 мм2.3 м/с2 %
    21:00Ясно и безоблачно+35°C11 %721 мм3.2 м/с2 %
Мы используем cookies
Соглашаюсь